createdAt,value
2023-05-13T00:00:36.830Z,10.31
2023-05-13T00:01:36.768Z,10.35
2023-05-13T00:02:36.784Z,10.44
2023-05-13T00:03:36.791Z,10.56
2023-05-13T00:04:36.784Z,10.60
2023-05-13T00:05:36.722Z,10.61
2023-05-13T00:06:36.802Z,10.67
2023-05-13T00:07:36.736Z,10.74
2023-05-13T00:08:36.705Z,10.79
2023-05-13T00:09:36.701Z,10.79
2023-05-13T00:10:36.682Z,10.81
2023-05-13T00:11:36.661Z,10.79
2023-05-13T00:12:36.688Z,10.78
2023-05-13T00:13:36.653Z,10.78
2023-05-13T00:14:36.657Z,10.78
2023-05-13T00:15:36.715Z,10.76
2023-05-13T00:16:36.653Z,10.75
2023-05-13T00:17:36.610Z,10.74
2023-05-13T00:18:36.671Z,10.74
2023-05-13T00:19:36.593Z,10.72
2023-05-13T00:20:36.568Z,10.72
2023-05-13T00:21:36.551Z,10.72
2023-05-13T00:22:36.558Z,10.74
2023-05-13T00:23:36.546Z,10.69
2023-05-13T00:24:36.545Z,10.67
2023-05-13T00:25:36.521Z,10.67
2023-05-13T00:26:36.513Z,10.69
2023-05-13T00:27:36.519Z,10.69
2023-05-13T00:28:36.520Z,10.71
2023-05-13T00:29:36.483Z,10.72
2023-05-13T00:30:36.465Z,10.74
2023-05-13T00:31:36.506Z,10.69
2023-05-13T00:32:36.472Z,10.71
2023-05-13T00:33:36.449Z,10.69
2023-05-13T00:34:36.458Z,10.67
2023-05-13T00:35:36.403Z,10.61
2023-05-13T00:36:36.398Z,10.63
2023-05-13T00:37:36.531Z,10.61
2023-05-13T00:38:36.380Z,10.61
2023-05-13T00:39:36.398Z,10.63
2023-05-13T00:40:36.363Z,10.60
2023-05-13T00:41:36.384Z,10.56
2023-05-13T00:42:36.357Z,10.53
2023-05-13T00:43:36.313Z,10.54
2023-05-13T00:44:36.313Z,10.54
2023-05-13T00:45:36.309Z,10.59
2023-05-13T00:46:36.308Z,10.63
2023-05-13T00:47:36.338Z,10.71
2023-05-13T00:48:36.270Z,10.72
2023-05-13T00:49:36.254Z,10.72
2023-05-13T00:50:36.295Z,10.76
2023-05-13T00:51:36.245Z,10.74
2023-05-13T00:52:36.237Z,10.71
2023-05-13T00:53:36.213Z,10.64
2023-05-13T00:54:36.284Z,10.59
2023-05-13T00:55:36.213Z,10.53
2023-05-13T00:56:36.225Z,10.51
2023-05-13T00:57:36.173Z,10.54
2023-05-13T00:58:36.171Z,10.51
2023-05-13T00:59:36.151Z,10.48
2023-05-13T01:00:36.165Z,10.42
2023-05-13T01:01:36.240Z,10.41
2023-05-13T01:02:36.184Z,10.38
2023-05-13T01:03:36.130Z,10.37
2023-05-13T01:04:36.105Z,10.31
2023-05-13T01:05:36.119Z,10.30
2023-05-13T01:06:36.073Z,10.28
2023-05-13T01:07:36.061Z,10.25
2023-05-13T01:08:36.074Z,10.17
2023-05-13T01:09:36.062Z,10.12
2023-05-13T01:10:36.049Z,10.09
2023-05-13T01:11:36.027Z,10.01
2023-05-13T01:12:36.026Z,9.99
2023-05-13T01:13:36.006Z,9.98
2023-05-13T01:14:36.016Z,9.97
2023-05-13T01:15:35.984Z,9.95
2023-05-13T01:16:36.046Z,9.98
2023-05-13T01:17:35.980Z,9.94
2023-05-13T01:18:35.971Z,9.92
2023-05-13T01:19:35.961Z,9.89
2023-05-13T01:23:53.377Z,9.69
2023-05-13T01:24:54.364Z,9.66
2023-05-13T01:25:54.310Z,9.59
2023-05-13T01:26:54.313Z,9.59
2023-05-13T01:27:54.287Z,9.56
2023-05-13T01:28:54.324Z,9.51
2023-05-13T01:29:54.287Z,9.46
2023-05-13T01:30:54.329Z,9.43
2023-05-13T01:31:54.250Z,9.37
2023-05-13T01:32:54.313Z,9.36
2023-05-13T01:33:54.295Z,9.28
2023-05-13T01:34:54.258Z,9.26
2023-05-13T01:35:54.228Z,9.25
2023-05-13T01:36:54.213Z,9.18
2023-05-13T01:37:54.254Z,9.14
2023-05-13T01:38:54.202Z,9.08
2023-05-13T01:39:54.178Z,9.04
2023-05-13T01:40:54.158Z,8.97
2023-05-13T01:41:54.185Z,8.99
2023-05-13T01:42:54.184Z,8.92
2023-05-13T01:43:54.146Z,8.85
2023-05-13T01:44:54.118Z,8.82
2023-05-13T01:45:54.114Z,8.81
2023-05-13T01:46:54.226Z,8.79
2023-05-13T01:47:54.117Z,8.82
2023-05-13T01:48:54.072Z,8.87
2023-05-13T01:49:54.089Z,8.91
2023-05-13T01:50:54.082Z,8.97
2023-05-13T01:51:54.088Z,9.00
2023-05-13T01:52:54.062Z,9.04
2023-05-13T01:53:54.027Z,9.06
2023-05-13T01:54:54.032Z,9.14
2023-05-13T01:55:54.018Z,9.19
2023-05-13T01:56:54.039Z,9.25
2023-05-13T01:57:54.009Z,9.28
2023-05-13T01:58:53.983Z,9.32
2023-05-13T01:59:53.976Z,9.36
2023-05-13T02:00:53.952Z,9.32
2023-05-13T02:01:53.988Z,9.26
2023-05-13T02:02:54.031Z,9.22
2023-05-13T02:03:54.068Z,9.22
2023-05-13T02:04:53.911Z,9.22
2023-05-13T02:05:53.954Z,9.21
2023-05-13T02:06:53.903Z,9.19
2023-05-13T02:07:53.897Z,9.22
2023-05-13T02:08:53.929Z,9.23
2023-05-13T02:09:53.870Z,9.29
2023-05-13T02:10:53.868Z,9.39
2023-05-13T02:11:53.843Z,9.41
2023-05-13T02:12:53.836Z,9.41
2023-05-13T02:13:53.826Z,9.36
2023-05-13T02:14:53.811Z,9.29
2023-05-13T02:15:53.822Z,9.28
2023-05-13T02:16:53.857Z,9.26
2023-05-13T02:17:53.796Z,9.18
2023-05-13T02:18:53.886Z,9.14
2023-05-13T02:19:53.769Z,9.11
2023-05-13T02:20:53.775Z,9.06
2023-05-13T02:21:53.765Z,8.99
2023-05-13T02:22:53.726Z,8.94
2023-05-13T02:23:53.733Z,8.87
2023-05-13T02:24:53.721Z,8.74
2023-05-13T02:25:53.712Z,8.67
2023-05-13T02:26:53.697Z,8.64
2023-05-13T02:27:53.670Z,8.64
2023-05-13T02:28:53.674Z,8.61
2023-05-13T02:29:53.690Z,8.63
2023-05-13T02:30:53.635Z,8.63
2023-05-13T02:31:53.666Z,8.58
2023-05-13T02:32:53.646Z,8.56
2023-05-13T02:33:53.644Z,8.53
2023-05-13T02:34:53.626Z,8.53
2023-05-13T02:35:53.606Z,8.51
2023-05-13T02:36:53.574Z,8.49
2023-05-13T02:37:53.572Z,8.48
2023-05-13T02:38:53.608Z,8.51
2023-05-13T02:39:53.596Z,8.48
2023-05-13T02:40:53.531Z,8.42
2023-05-13T02:41:53.553Z,8.37
2023-05-13T02:42:53.526Z,8.33
2023-05-13T02:43:53.532Z,8.34
2023-05-13T02:44:53.537Z,8.37
2023-05-13T02:45:53.505Z,8.37
2023-05-13T02:46:53.480Z,8.34
2023-05-13T02:47:53.521Z,8.31
2023-05-13T02:48:53.486Z,8.30
2023-05-13T02:49:53.412Z,8.31
2023-05-13T02:50:53.425Z,8.24
2023-05-13T02:51:53.435Z,8.19
2023-05-13T02:52:53.431Z,8.13
2023-05-13T02:53:53.408Z,8.13
2023-05-13T02:54:53.417Z,8.15
2023-05-13T02:55:53.452Z,8.13
2023-05-13T02:56:53.337Z,8.15
2023-05-13T02:57:53.327Z,8.15
2023-05-13T02:58:53.291Z,8.15
2023-05-13T02:59:53.369Z,8.16
2023-05-13T03:00:53.337Z,8.13
2023-05-13T03:01:53.390Z,8.15
2023-05-13T03:02:53.384Z,8.15
2023-05-13T03:03:53.304Z,8.09
2023-05-13T03:04:53.283Z,8.03
2023-05-13T03:05:53.285Z,8.05
2023-05-13T03:06:53.309Z,8.06
2023-05-13T03:07:53.219Z,8.05
2023-05-13T03:08:53.202Z,8.01
2023-05-13T03:09:53.198Z,7.97
2023-05-13T03:10:53.181Z,7.98
2023-05-13T03:11:53.193Z,8.01
2023-05-13T03:12:53.153Z,8.03
2023-05-13T03:13:53.138Z,8.01
2023-05-13T03:14:53.162Z,7.97
2023-05-13T03:15:53.234Z,7.97
2023-05-13T03:16:53.118Z,7.94
2023-05-13T03:17:53.186Z,7.94
2023-05-13T03:18:53.152Z,7.95
2023-05-13T03:19:53.074Z,7.98
2023-05-13T03:20:53.078Z,8.01
2023-05-13T03:21:53.054Z,8.06
2023-05-13T03:22:53.048Z,8.06
2023-05-13T03:23:53.052Z,8.05
2023-05-13T03:24:53.047Z,8.00
2023-05-13T03:25:53.043Z,8.00
2023-05-13T03:26:53.002Z,8.06
2023-05-13T03:27:52.988Z,8.10
2023-05-13T03:28:52.975Z,8.16
2023-05-13T03:29:53.009Z,8.23
2023-05-13T03:30:53.038Z,8.23
2023-05-13T03:31:52.993Z,8.26
2023-05-13T03:32:53.011Z,8.26
2023-05-13T03:33:52.921Z,8.27
2023-05-13T03:34:52.949Z,8.30
2023-05-13T03:35:52.943Z,8.36
2023-05-13T03:36:52.899Z,8.45
2023-05-13T03:37:52.886Z,8.51
2023-05-13T03:38:52.872Z,8.55
2023-05-13T03:39:52.946Z,8.56
2023-05-13T03:40:52.848Z,8.52
2023-05-13T03:41:52.854Z,8.45
2023-05-13T03:42:52.851Z,8.37
2023-05-13T03:43:52.847Z,8.33
2023-05-13T03:44:52.843Z,8.30
2023-05-13T03:45:52.815Z,8.28
2023-05-13T03:48:09.068Z,8.27
2023-05-13T03:49:10.025Z,8.24
2023-05-13T03:50:10.005Z,8.24
2023-05-13T03:51:10.023Z,8.18
2023-05-13T03:52:09.994Z,8.13
2023-05-13T03:53:09.995Z,8.09
2023-05-13T03:54:09.971Z,8.06
2023-05-13T03:55:09.951Z,8.05
2023-05-13T03:56:09.944Z,8.03
2023-05-13T03:57:09.922Z,8.00
2023-05-13T03:58:09.953Z,7.98
2023-05-13T03:59:09.901Z,7.97
2023-05-13T04:00:09.900Z,7.94
2023-05-13T04:01:09.883Z,7.94
2023-05-13T04:02:09.892Z,7.95
2023-05-13T04:03:09.901Z,7.91
2023-05-13T04:04:09.893Z,7.88
2023-05-13T04:05:09.919Z,7.80
2023-05-13T04:06:09.851Z,7.73
2023-05-13T04:07:09.860Z,7.67
2023-05-13T04:08:09.842Z,7.60
2023-05-13T04:09:09.806Z,7.54
2023-05-13T04:10:10.527Z,7.43
2023-05-13T04:11:09.788Z,7.40
2023-05-13T04:12:09.799Z,7.42
2023-05-13T04:13:09.756Z,7.47
2023-05-13T04:14:09.766Z,7.50
2023-05-13T04:15:09.741Z,7.54
2023-05-13T04:16:09.738Z,7.58
2023-05-13T04:17:09.875Z,7.63
2023-05-13T04:18:09.726Z,7.66
2023-05-13T04:19:09.804Z,7.70
2023-05-13T04:20:09.698Z,7.61
2023-05-13T04:21:09.718Z,7.66
2023-05-13T04:22:09.693Z,7.67
2023-05-13T04:23:09.663Z,7.73
2023-05-13T04:24:09.652Z,7.83
2023-05-13T04:25:09.637Z,7.85
2023-05-13T04:26:09.656Z,7.98
2023-05-13T04:27:09.620Z,8.13
2023-05-13T04:28:09.614Z,8.27
2023-05-13T04:29:09.603Z,8.36
2023-05-13T04:30:09.594Z,8.42
2023-05-13T04:31:09.586Z,8.51
2023-05-13T04:32:09.607Z,8.61
2023-05-13T04:33:09.611Z,8.70
2023-05-13T04:34:09.554Z,8.76
2023-05-13T04:35:09.559Z,8.84
2023-05-13T04:36:09.545Z,8.88
2023-05-13T04:37:09.543Z,8.95
2023-05-13T04:38:09.531Z,9.02
2023-05-13T04:39:09.482Z,9.10
2023-05-13T04:40:09.515Z,9.19
2023-05-13T04:41:09.492Z,9.28
2023-05-13T04:42:09.478Z,9.32
2023-05-13T04:43:09.441Z,9.41
2023-05-13T04:44:09.442Z,9.48
2023-05-13T04:45:09.447Z,9.55
2023-05-13T04:46:09.442Z,9.58
2023-05-13T04:47:09.429Z,9.64
2023-05-13T04:48:09.512Z,9.73
2023-05-13T04:49:09.415Z,9.77
2023-05-13T04:50:09.768Z,9.76
2023-05-13T04:51:09.364Z,9.76
2023-05-13T04:52:09.350Z,9.80
2023-05-13T04:53:09.339Z,9.89
2023-05-13T04:54:09.358Z,9.95
2023-05-13T04:55:09.323Z,9.99
2023-05-13T04:56:09.330Z,10.02
2023-05-13T04:57:09.306Z,10.20
2023-05-13T04:58:09.307Z,10.40
2023-05-13T04:59:09.302Z,10.54
2023-05-13T05:00:09.277Z,10.61
2023-05-13T05:01:09.264Z,10.72
2023-05-13T05:02:09.256Z,10.90
2023-05-13T05:03:09.735Z,11.02
2023-05-13T05:04:09.268Z,11.29
2023-05-13T05:05:09.219Z,11.55
2023-05-13T05:06:09.216Z,11.86
2023-05-13T05:07:09.202Z,12.03
2023-05-13T05:08:09.229Z,12.35
2023-05-13T05:09:09.175Z,12.60
2023-05-13T05:10:09.175Z,12.86
2023-05-13T05:11:09.156Z,13.12
2023-05-13T05:12:09.141Z,13.37
2023-05-13T05:13:09.173Z,13.59
2023-05-13T05:14:09.141Z,13.86
2023-05-13T05:15:09.108Z,14.12
2023-05-13T05:16:09.115Z,14.40
2023-05-13T05:17:09.152Z,14.69
2023-05-13T05:18:09.184Z,14.97
2023-05-13T05:19:09.098Z,15.24
2023-05-13T05:20:09.326Z,15.52
2023-05-13T05:21:09.058Z,15.76
2023-05-13T05:22:09.060Z,16.01
2023-05-13T05:23:09.064Z,16.24
2023-05-13T05:24:09.025Z,16.38
2023-05-13T05:25:09.022Z,16.58
2023-05-13T05:26:12.101Z,16.79
2023-05-13T05:27:09.009Z,16.97
2023-05-13T05:28:08.997Z,17.15
2023-05-13T05:29:08.983Z,17.20
2023-05-13T05:30:08.963Z,17.30
2023-05-13T05:31:09.026Z,17.46
2023-05-13T05:32:08.978Z,17.57
2023-05-13T05:33:08.963Z,17.72
2023-05-13T05:34:08.937Z,17.89
2023-05-13T05:35:08.908Z,18.03
2023-05-13T05:36:08.943Z,18.13
2023-05-13T05:37:08.882Z,18.15
2023-05-13T05:38:08.892Z,17.85
2023-05-13T05:39:08.868Z,17.24
2023-05-13T05:40:08.860Z,16.38
2023-05-13T05:41:08.866Z,16.00
2023-05-13T05:42:08.876Z,15.91
2023-05-13T05:43:08.824Z,16.26
2023-05-13T05:44:08.823Z,16.97
2023-05-13T05:45:08.838Z,17.56
2023-05-13T05:46:08.851Z,18.10
2023-05-13T05:47:08.774Z,18.53
2023-05-13T05:48:08.800Z,18.70
2023-05-13T05:49:08.799Z,17.92
2023-05-13T05:50:08.780Z,17.15
2023-05-13T05:51:08.738Z,16.56
2023-05-13T05:52:08.733Z,16.33
2023-05-13T05:53:08.708Z,16.02
2023-05-13T05:54:08.716Z,15.98
2023-05-13T05:55:08.716Z,15.98
2023-05-13T05:56:08.708Z,16.16
2023-05-13T05:57:08.676Z,16.02
2023-05-13T05:58:08.682Z,15.90
2023-05-13T05:59:08.681Z,15.67
2023-05-13T06:00:08.665Z,15.42
2023-05-13T06:01:08.634Z,15.15
2023-05-13T06:02:08.681Z,15.00
2023-05-13T06:03:08.742Z,14.78
2023-05-13T06:04:08.667Z,14.63
2023-05-13T06:05:08.629Z,14.48
2023-05-13T06:06:08.576Z,14.43
2023-05-13T06:07:08.595Z,14.43
2023-05-13T06:08:08.557Z,14.36
2023-05-13T06:09:08.594Z,14.26
2023-05-13T06:10:08.548Z,14.63
2023-05-13T06:11:08.533Z,15.14
2023-05-13T06:12:08.552Z,15.39
2023-05-13T06:13:08.532Z,15.46
2023-05-13T06:14:08.525Z,15.43
2023-05-13T06:15:08.490Z,15.46
2023-05-13T06:16:08.561Z,15.36
2023-05-13T06:17:08.474Z,15.24
2023-05-13T06:18:08.535Z,15.15
2023-05-13T06:19:08.462Z,15.10
2023-05-13T06:20:08.430Z,15.06
2023-05-13T06:21:08.432Z,15.02
2023-05-13T06:22:08.406Z,14.94
2023-05-13T06:23:08.430Z,14.94
2023-05-13T06:24:08.381Z,14.94
2023-05-13T06:25:08.406Z,14.91
2023-05-13T06:26:08.362Z,14.92
2023-05-13T06:27:08.388Z,14.94
2023-05-13T06:28:08.387Z,14.97
2023-05-13T06:29:08.353Z,14.91
2023-05-13T06:30:08.342Z,14.89
2023-05-13T06:31:08.352Z,14.86
2023-05-13T06:32:08.318Z,14.84
2023-05-13T06:33:08.361Z,14.73
2023-05-13T06:34:08.307Z,14.77
2023-05-13T06:35:08.294Z,14.81
2023-05-13T06:36:08.268Z,14.84
2023-05-13T06:37:08.279Z,14.84
2023-05-13T06:38:08.244Z,14.84
2023-05-13T06:39:08.234Z,14.85
2023-05-13T06:40:08.225Z,14.88
2023-05-13T06:41:08.233Z,14.91
2023-05-13T06:42:08.239Z,14.86
2023-05-13T06:43:08.187Z,14.89
2023-05-13T06:44:08.181Z,14.92
2023-05-13T06:45:08.164Z,15.03
2023-05-13T06:46:08.180Z,15.11
2023-05-13T06:47:08.235Z,15.18
2023-05-13T06:48:08.220Z,15.25
2023-05-13T06:49:08.134Z,15.33
2023-05-13T06:50:08.117Z,15.37
2023-05-13T06:51:08.118Z,15.40
2023-05-13T06:52:08.087Z,15.43
2023-05-13T06:53:08.091Z,15.51
2023-05-13T06:54:08.076Z,15.58
2023-05-13T06:55:08.083Z,15.57
2023-05-13T06:56:08.074Z,15.52
2023-05-13T06:57:08.056Z,15.62
2023-05-13T06:58:08.028Z,15.70
2023-05-13T06:59:08.018Z,15.80
2023-05-13T07:00:08.024Z,15.91
2023-05-13T07:01:08.077Z,16.00
2023-05-13T07:02:07.977Z,16.02
2023-05-13T07:03:08.022Z,16.13
2023-05-13T07:04:08.128Z,16.41
2023-05-13T07:05:09.741Z,16.78
2023-05-13T07:06:07.961Z,17.24
2023-05-13T07:07:07.933Z,17.68
2023-05-13T07:08:07.917Z,18.13
2023-05-13T07:09:08.545Z,18.53
2023-05-13T07:10:07.904Z,18.92
2023-05-13T07:11:07.892Z,19.37
2023-05-13T07:12:07.875Z,19.70
2023-05-13T07:13:07.878Z,20.11
2023-05-13T07:14:07.870Z,20.48
2023-05-13T07:15:07.853Z,20.77
2023-05-13T07:16:07.830Z,21.17
2023-05-13T07:17:07.870Z,21.61
2023-05-13T07:18:07.842Z,21.85
2023-05-13T07:19:07.862Z,22.10
2023-05-13T07:20:07.781Z,22.32
2023-05-13T07:21:07.789Z,22.50
2023-05-13T07:22:07.768Z,22.75
2023-05-13T07:23:07.779Z,22.98
2023-05-13T07:24:07.756Z,23.18
2023-05-13T07:25:07.761Z,23.23
2023-05-13T07:26:07.718Z,23.21
2023-05-13T07:27:07.723Z,23.25
2023-05-13T07:28:07.718Z,23.12
2023-05-13T07:29:07.696Z,23.40
2023-05-13T07:30:07.681Z,23.62
2023-05-13T07:31:07.717Z,23.73
2023-05-13T07:32:07.678Z,23.96
2023-05-13T07:33:07.690Z,24.11
2023-05-13T07:34:07.647Z,24.08
2023-05-13T07:35:07.674Z,24.08
2023-05-13T07:36:07.618Z,24.14
2023-05-13T07:37:07.645Z,24.14
2023-05-13T07:38:07.597Z,24.08
2023-05-13T07:39:07.616Z,24.08
2023-05-13T07:40:07.576Z,24.16
2023-05-13T07:41:07.583Z,24.29
2023-05-13T07:42:07.575Z,24.24
2023-05-13T07:43:07.558Z,24.10
2023-05-13T07:44:07.541Z,24.03
2023-05-13T07:45:07.532Z,23.99
2023-05-13T07:46:07.516Z,24.02
2023-05-13T07:47:07.565Z,24.23
2023-05-13T07:48:07.534Z,24.21
2023-05-13T07:49:07.489Z,24.13
2023-05-13T07:50:07.493Z,24.21
2023-05-13T07:51:07.483Z,24.28
2023-05-13T07:52:07.474Z,24.21
2023-05-13T07:53:07.454Z,24.28
2023-05-13T07:54:07.434Z,24.33
2023-05-13T07:55:07.430Z,24.47
2023-05-13T07:56:07.448Z,24.45
2023-05-13T07:57:07.408Z,24.43
2023-05-13T07:58:07.390Z,24.43
2023-05-13T07:59:07.390Z,24.55
2023-05-13T08:00:07.377Z,24.66
2023-05-13T08:01:07.386Z,24.73
2023-05-13T08:02:07.357Z,24.93
2023-05-13T08:03:07.509Z,25.01
2023-05-13T08:04:07.415Z,25.10
2023-05-13T08:05:07.408Z,25.22
2023-05-13T08:06:07.322Z,25.40
2023-05-13T08:07:07.306Z,25.33
2023-05-13T08:08:07.289Z,25.33
2023-05-13T08:09:07.279Z,25.53
2023-05-13T08:10:07.282Z,25.53
2023-05-13T08:11:07.267Z,25.69
2023-05-13T08:12:07.235Z,25.48
2023-05-13T08:13:07.257Z,25.73
2023-05-13T08:14:07.286Z,25.60
2023-05-13T08:15:07.256Z,25.60
2023-05-13T08:16:07.413Z,26.05
2023-05-13T08:17:07.213Z,26.23
2023-05-13T08:18:07.226Z,26.51
2023-05-13T08:19:07.266Z,26.58
2023-05-13T08:20:07.193Z,26.70
2023-05-13T08:21:07.161Z,26.83
2023-05-13T08:22:07.141Z,27.00
2023-05-13T08:23:07.137Z,27.15
2023-05-13T08:24:07.137Z,27.12
2023-05-13T08:25:07.113Z,27.18
2023-05-13T08:26:07.112Z,27.20
2023-05-13T08:27:07.100Z,27.45
2023-05-13T08:28:07.085Z,27.51
2023-05-13T08:29:07.090Z,27.39
2023-05-13T08:30:07.064Z,27.48
2023-05-13T08:31:07.059Z,27.87
2023-05-13T08:32:07.085Z,28.01
2023-05-13T08:33:07.115Z,27.95
2023-05-13T08:34:07.029Z,28.02
2023-05-13T08:35:07.025Z,28.08
2023-05-13T08:36:07.002Z,27.86
2023-05-13T08:37:06.994Z,27.59
2023-05-13T08:38:06.996Z,27.64
2023-05-13T08:39:06.986Z,27.80
2023-05-13T08:40:07.002Z,27.96
2023-05-13T08:41:06.948Z,27.95
2023-05-13T08:42:06.926Z,27.92
2023-05-13T08:43:06.941Z,27.95
2023-05-13T08:44:07.002Z,28.02
2023-05-13T08:45:06.923Z,28.17
2023-05-13T08:46:06.927Z,28.07
2023-05-13T08:47:06.903Z,27.32
2023-05-13T08:48:06.951Z,27.08
2023-05-13T08:49:06.866Z,27.08
2023-05-13T08:50:06.850Z,26.78
2023-05-13T08:51:06.868Z,26.52
2023-05-13T08:52:06.849Z,26.26
2023-05-13T08:53:06.826Z,26.19
2023-05-13T08:54:06.813Z,26.16
2023-05-13T08:55:06.803Z,26.18
2023-05-13T08:56:06.796Z,26.31
2023-05-13T08:57:06.807Z,26.25
2023-05-13T08:58:06.791Z,26.06
2023-05-13T08:59:06.773Z,25.90
2023-05-13T09:00:06.766Z,25.84
2023-05-13T09:01:06.792Z,25.77
2023-05-13T09:02:06.758Z,25.46
2023-05-13T09:03:06.819Z,25.69
2023-05-13T09:04:06.711Z,25.68
2023-05-13T09:05:06.750Z,25.95
2023-05-13T09:06:06.713Z,26.23
2023-05-13T09:07:06.679Z,25.99
2023-05-13T09:08:06.678Z,26.06
2023-05-13T09:09:06.672Z,25.88
2023-05-13T09:10:06.693Z,26.06
2023-05-13T09:11:06.665Z,25.63
2023-05-13T09:12:06.637Z,25.60
2023-05-13T09:13:06.639Z,25.85
2023-05-13T09:14:06.604Z,26.13
2023-05-13T09:15:06.645Z,26.26
2023-05-13T09:16:06.700Z,26.38
2023-05-13T09:17:06.586Z,26.58
2023-05-13T09:18:06.660Z,26.70
2023-05-13T09:19:06.645Z,26.59
2023-05-13T09:20:06.607Z,26.03
2023-05-13T09:21:06.582Z,25.65
2023-05-13T09:22:06.527Z,25.95
2023-05-13T09:23:06.529Z,26.31
2023-05-13T09:24:08.565Z,26.83
2023-05-13T09:25:06.568Z,27.22
2023-05-13T09:26:06.480Z,27.67
2023-05-13T09:27:06.475Z,28.07
2023-05-13T09:28:06.462Z,28.32
2023-05-13T09:29:06.507Z,28.47
2023-05-13T09:30:06.458Z,28.97
2023-05-13T09:31:06.464Z,28.64
2023-05-13T09:32:06.417Z,29.39
2023-05-13T09:33:06.497Z,29.36
2023-05-13T09:34:06.416Z,29.32
2023-05-13T09:35:06.391Z,29.07
2023-05-13T09:36:06.378Z,29.20
2023-05-13T09:37:06.391Z,29.53
2023-05-13T09:38:06.353Z,29.20
2023-05-13T09:39:06.392Z,29.27
2023-05-13T09:40:06.338Z,29.14
2023-05-13T09:41:06.327Z,28.91
2023-05-13T09:42:06.328Z,29.12
2023-05-13T09:43:06.335Z,29.12
2023-05-13T09:44:06.350Z,29.24
2023-05-13T09:45:06.299Z,29.42
2023-05-13T09:46:06.273Z,29.72
2023-05-13T09:47:06.345Z,29.76
2023-05-13T09:48:06.332Z,29.61
2023-05-13T09:49:06.256Z,29.50
2023-05-13T09:50:06.235Z,29.34
2023-05-13T09:51:06.239Z,29.50
2023-05-13T09:52:06.212Z,29.39
2023-05-13T09:53:06.241Z,29.69
2023-05-13T09:54:06.221Z,29.54
2023-05-13T09:55:06.195Z,29.91
2023-05-13T09:56:06.184Z,30.27
2023-05-13T09:57:06.180Z,30.00
2023-05-13T09:58:06.194Z,29.79
2023-05-13T09:59:06.219Z,28.97
2023-05-13T10:00:06.163Z,26.74
2023-05-13T10:01:06.192Z,25.14
2023-05-13T10:02:06.177Z,24.42
2023-05-13T10:03:06.194Z,23.91
2023-05-13T10:04:06.230Z,23.08
2023-05-13T10:05:06.113Z,22.68
2023-05-13T10:06:06.092Z,22.68
2023-05-13T10:07:06.089Z,24.65
2023-05-13T10:08:06.076Z,26.02
2023-05-13T10:09:06.058Z,27.37
2023-05-13T10:10:06.043Z,28.22
2023-05-13T10:11:06.077Z,28.08
2023-05-13T10:12:06.055Z,27.73
2023-05-13T10:13:06.009Z,28.29
2023-05-13T10:14:06.014Z,28.79
2023-05-13T10:15:06.012Z,28.78
2023-05-13T10:16:06.042Z,28.85
2023-05-13T10:17:06.097Z,29.20
2023-05-13T10:18:07.570Z,29.54
2023-05-13T10:19:06.008Z,29.79
2023-05-13T10:20:05.952Z,29.78
2023-05-13T10:21:05.951Z,29.72
2023-05-13T10:22:05.922Z,29.94
2023-05-13T10:23:05.955Z,30.10
2023-05-13T10:24:05.904Z,30.21
2023-05-13T10:25:05.880Z,30.44
2023-05-13T10:26:05.894Z,30.06
2023-05-13T10:27:05.857Z,30.28
2023-05-13T10:28:05.907Z,29.69
2023-05-13T10:29:05.850Z,29.68
2023-05-13T10:30:05.917Z,29.69
2023-05-13T10:31:05.845Z,29.39
2023-05-13T10:32:05.904Z,29.07
2023-05-13T10:33:05.841Z,29.39
2023-05-13T10:34:05.825Z,29.50
2023-05-13T10:35:05.821Z,29.73
2023-05-13T10:36:05.778Z,29.51
2023-05-13T10:37:05.790Z,29.44
2023-05-13T10:38:05.764Z,29.12
2023-05-13T10:39:05.755Z,29.19
2023-05-13T10:40:05.747Z,29.44
2023-05-13T10:41:05.720Z,30.05
2023-05-13T10:42:05.711Z,29.60
2023-05-13T10:43:05.697Z,29.45
2023-05-13T10:44:05.759Z,28.32
2023-05-13T10:45:05.774Z,27.30
2023-05-13T10:46:05.712Z,27.29
2023-05-13T10:47:05.696Z,27.10
2023-05-13T10:48:05.777Z,26.93
2023-05-13T10:49:05.668Z,27.95
2023-05-13T10:50:05.636Z,28.41
2023-05-13T10:51:05.781Z,28.79
2023-05-13T10:52:05.626Z,28.86
2023-05-13T10:53:05.606Z,28.51
2023-05-13T10:54:05.663Z,27.89
2023-05-13T10:55:05.570Z,28.64
2023-05-13T10:56:05.579Z,29.22
2023-05-13T10:57:05.557Z,28.96
2023-05-13T10:58:05.578Z,28.51
2023-05-13T10:59:05.553Z,29.02
2023-05-13T11:00:05.548Z,28.81
2023-05-13T11:01:05.514Z,28.72
2023-05-13T11:02:05.532Z,27.86
2023-05-13T11:03:05.623Z,26.03
2023-05-13T11:04:05.605Z,24.65
2023-05-13T11:05:05.498Z,23.55
2023-05-13T11:06:05.558Z,22.80
2023-05-13T11:07:05.492Z,22.26
2023-05-13T11:08:05.472Z,21.70
2023-05-13T11:09:05.450Z,21.32
2023-05-13T11:10:05.462Z,21.11
2023-05-13T11:11:05.401Z,20.95
2023-05-13T11:12:05.436Z,20.85
2023-05-13T11:13:05.385Z,20.77
2023-05-13T11:14:07.017Z,20.69
2023-05-13T11:15:05.366Z,20.59
2023-05-13T11:16:05.395Z,20.58
2023-05-13T11:17:05.424Z,20.59
2023-05-13T11:18:05.376Z,20.56
2023-05-13T11:19:05.398Z,20.44
2023-05-13T11:20:05.337Z,20.29
2023-05-13T11:21:05.713Z,20.47
2023-05-13T11:22:05.328Z,21.95
2023-05-13T11:23:05.303Z,21.60
2023-05-13T11:24:05.277Z,21.17
2023-05-13T11:25:05.274Z,20.59
2023-05-13T11:26:05.302Z,20.40
2023-05-13T11:27:05.274Z,20.16
2023-05-13T11:28:05.251Z,19.96
2023-05-13T11:29:05.245Z,19.82
2023-05-13T11:30:05.224Z,19.63
2023-05-13T11:31:05.428Z,19.55
2023-05-13T11:32:05.208Z,19.44
2023-05-13T11:33:05.219Z,19.31
2023-05-13T11:34:05.174Z,19.31
2023-05-13T11:35:05.495Z,19.34
2023-05-13T11:36:05.195Z,19.31
2023-05-13T11:37:05.134Z,19.31
2023-05-13T11:38:05.162Z,19.34
2023-05-13T11:39:05.132Z,19.33
2023-05-13T11:40:05.141Z,19.19
2023-05-13T11:41:05.103Z,19.14
2023-05-13T11:42:05.114Z,19.11
2023-05-13T11:43:05.243Z,19.11
2023-05-13T11:44:05.069Z,19.04
2023-05-13T11:45:05.110Z,18.99
2023-05-13T11:46:05.088Z,18.93
2023-05-13T11:47:05.059Z,18.88
2023-05-13T11:48:05.067Z,18.74
2023-05-13T11:49:07.274Z,18.59
2023-05-13T11:50:05.017Z,18.26
2023-05-13T11:51:05.006Z,17.92
2023-05-13T11:52:04.991Z,17.51
2023-05-13T11:53:04.971Z,17.24
2023-05-13T11:54:05.075Z,17.05
2023-05-13T11:55:06.995Z,16.91
2023-05-13T11:56:05.043Z,16.86
2023-05-13T11:57:04.932Z,16.76
2023-05-13T11:58:04.966Z,16.78
2023-05-13T11:59:04.935Z,16.81
2023-05-13T12:00:05.071Z,16.86
2023-05-13T12:01:04.902Z,16.93
2023-05-13T12:02:04.946Z,17.39
2023-05-13T12:03:05.079Z,17.41
2023-05-13T12:04:04.975Z,17.68
2023-05-13T12:05:04.976Z,19.09
2023-05-13T12:06:04.877Z,20.63
2023-05-13T12:07:04.824Z,21.99
2023-05-13T12:08:04.851Z,23.09
2023-05-13T12:09:04.906Z,24.02
2023-05-13T12:10:04.816Z,24.89
2023-05-13T12:11:04.793Z,24.58
2023-05-13T12:12:04.804Z,25.32
2023-05-13T12:13:04.793Z,25.81
2023-05-13T12:14:04.768Z,25.35
2023-05-13T12:15:04.750Z,25.62
2023-05-13T12:16:04.767Z,24.47
2023-05-13T12:17:04.748Z,23.56
2023-05-13T12:18:04.785Z,23.46
2023-05-13T12:19:05.027Z,22.45
2023-05-13T12:20:05.698Z,21.70
2023-05-13T12:21:04.688Z,21.25
2023-05-13T12:22:05.646Z,20.93
2023-05-13T12:23:04.708Z,20.60
2023-05-13T12:24:04.659Z,20.19
2023-05-13T12:25:04.734Z,19.84
2023-05-13T12:26:04.642Z,19.70
2023-05-13T12:27:04.632Z,19.56
2023-05-13T12:28:04.612Z,19.34
2023-05-13T12:29:04.592Z,19.07
2023-05-13T12:30:04.603Z,19.02
2023-05-13T12:31:04.687Z,19.04
2023-05-13T12:32:04.626Z,18.96
2023-05-13T12:33:04.665Z,18.92
2023-05-13T12:34:04.581Z,20.24
2023-05-13T12:35:04.532Z,21.55
2023-05-13T12:36:04.585Z,22.59
2023-05-13T12:37:04.620Z,23.48
2023-05-13T12:38:04.524Z,23.92
2023-05-13T12:39:04.498Z,24.33
2023-05-13T12:40:04.493Z,24.69
2023-05-13T12:41:04.486Z,24.91
2023-05-13T12:42:04.458Z,25.25
2023-05-13T12:43:04.461Z,24.81
2023-05-13T12:44:04.459Z,25.26
2023-05-13T12:45:04.472Z,24.63
2023-05-13T12:46:04.448Z,24.48
2023-05-13T12:47:04.427Z,23.77
2023-05-13T12:48:04.430Z,22.94
2023-05-13T12:49:04.408Z,22.57
2023-05-13T12:50:04.460Z,22.08
2023-05-13T12:51:04.397Z,21.55
2023-05-13T12:52:04.368Z,21.09
2023-05-13T12:53:04.362Z,20.74
2023-05-13T12:54:04.338Z,20.43
2023-05-13T12:55:04.338Z,20.11
2023-05-13T12:56:04.349Z,20.10
2023-05-13T12:57:04.326Z,20.77
2023-05-13T12:58:04.331Z,21.51
2023-05-13T12:59:04.309Z,22.48
2023-05-13T13:00:04.330Z,23.08
2023-05-13T13:01:04.351Z,22.93
2023-05-13T13:02:04.264Z,23.37
2023-05-13T13:03:04.318Z,23.98
2023-05-13T13:04:04.338Z,24.54